createdAt,value
2022-08-07T00:03:47.312Z,87.90
2022-08-07T00:09:16.406Z,88.30
2022-08-07T00:14:45.233Z,88.10
2022-08-07T00:26:06.877Z,88.30
2022-08-07T00:31:46.707Z,88.50
2022-08-07T00:42:50.803Z,88.30
2022-08-07T00:48:30.956Z,88.10
2022-08-07T00:59:35.338Z,88.30
2022-08-07T01:05:19.388Z,88.10
2022-08-07T01:27:36.993Z,88.10
2022-08-07T01:33:09.201Z,88.10
2022-08-07T01:38:38.685Z,87.90
2022-08-07T01:44:16.645Z,87.80
2022-08-07T01:55:22.226Z,88.10
2022-08-07T02:01:10.373Z,88.10
2022-08-07T02:06:47.701Z,88.30
2022-08-07T02:12:19.378Z,88.30
2022-08-07T02:18:00.273Z,87.90
2022-08-07T02:23:30.648Z,87.90
2022-08-07T02:29:07.773Z,88.60
2022-08-07T02:34:48.957Z,87.80
2022-08-07T02:40:30.845Z,87.60
2022-08-07T02:46:05.878Z,87.80
2022-08-07T02:51:42.907Z,87.70
2022-08-07T02:57:23.782Z,87.60
2022-08-07T03:03:00.345Z,87.70
2022-08-07T03:14:06.010Z,88.20
2022-08-07T03:19:36.859Z,88.00
2022-08-07T03:25:07.566Z,88.30
2022-08-07T03:30:46.556Z,88.30
2022-08-07T03:36:16.796Z,88.40
2022-08-07T03:47:25.428Z,88.30
2022-08-07T03:53:00.249Z,88.90
2022-08-07T03:59:06.750Z,88.60
2022-08-07T04:04:19.510Z,88.70
2022-08-07T04:09:59.195Z,88.70
2022-08-07T04:26:30.012Z,88.60
2022-08-07T04:32:03.042Z,88.40
2022-08-07T04:44:11.994Z,88.10
2022-08-07T04:49:57.751Z,88.10
2022-08-07T04:58:16.217Z,88.20
2022-08-07T05:02:22.960Z,87.80
2022-08-07T05:08:01.227Z,87.90
2022-08-07T05:14:53.338Z,87.50
2022-08-07T05:19:44.767Z,87.40
2022-08-07T05:25:25.602Z,87.20
2022-08-07T05:31:07.628Z,87.10
2022-08-07T05:36:42.660Z,86.80
2022-08-07T05:42:33.856Z,86.20
2022-08-07T05:48:08.371Z,86.00
2022-08-07T05:54:09.508Z,85.80
2022-08-07T05:59:47.278Z,85.40
2022-08-07T06:05:28.459Z,85.00
2022-08-07T06:16:35.466Z,84.30
2022-08-07T06:22:14.425Z,84.80
2022-08-07T06:28:01.418Z,83.50
2022-08-07T06:33:33.140Z,83.30
2022-08-07T06:40:13.120Z,83.00
2022-08-07T06:44:53.537Z,83.00
2022-08-07T06:50:23.091Z,83.00
2022-08-07T07:01:43.829Z,82.30
2022-08-07T07:13:55.959Z,81.50
2022-08-07T07:19:56.131Z,81.00
2022-08-07T07:26:30.659Z,80.70
2022-08-07T07:31:13.067Z,79.60
2022-08-07T07:36:47.812Z,79.20
2022-08-07T07:42:32.829Z,79.10
2022-08-07T07:48:04.249Z,79.10
2022-08-07T07:53:34.839Z,78.70
2022-08-07T07:59:05.917Z,78.00
2022-08-07T08:04:36.472Z,77.50
2022-08-07T08:10:08.035Z,76.80
2022-08-07T08:15:57.877Z,76.20
2022-08-07T08:21:55.660Z,75.90
2022-08-07T08:27:37.616Z,75.70
2022-08-07T08:33:10.361Z,75.40
2022-08-07T08:38:46.387Z,75.50
2022-08-07T08:44:33.883Z,75.00
2022-08-07T08:50:34.850Z,74.40
2022-08-07T08:56:33.653Z,74.20
2022-08-07T09:02:37.510Z,73.30
2022-08-07T09:08:24.318Z,73.20
2022-08-07T09:14:19.804Z,73.20
2022-08-07T09:20:24.957Z,73.70
2022-08-07T09:26:29.266Z,72.30
2022-08-07T09:32:31.060Z,71.60
2022-08-07T09:38:10.554Z,71.00
2022-08-07T09:44:05.693Z,69.30
2022-08-07T09:50:04.166Z,70.00
2022-08-07T09:56:34.107Z,68.60
2022-08-07T10:02:20.320Z,68.50
2022-08-07T10:08:40.378Z,68.60
2022-08-07T10:15:18.359Z,68.00
2022-08-07T10:22:14.175Z,67.60
2022-08-07T10:27:51.458Z,66.60
2022-08-07T10:34:06.717Z,65.80
2022-08-07T10:40:14.060Z,66.10
2022-08-07T10:45:58.784Z,65.70
2022-08-07T10:51:57.169Z,65.20
2022-08-07T10:57:56.066Z,65.40
2022-08-07T11:03:37.142Z,64.60
2022-08-07T11:10:09.071Z,64.00
2022-08-07T11:15:17.203Z,64.10
2022-08-07T11:21:23.162Z,63.70
2022-08-07T11:27:16.611Z,63.90
2022-08-07T11:33:14.005Z,63.30
2022-08-07T11:39:14.664Z,62.20
2022-08-07T11:45:13.654Z,62.50
2022-08-07T11:51:41.923Z,62.20
2022-08-07T11:57:59.704Z,61.90
2022-08-07T12:03:58.117Z,61.10
2022-08-07T12:09:55.455Z,60.90
2022-08-07T12:15:46.430Z,60.90
2022-08-07T12:22:36.074Z,60.00
2022-08-07T12:28:09.116Z,60.10
2022-08-07T12:33:56.154Z,60.10
2022-08-07T12:39:42.585Z,60.60
2022-08-07T12:45:16.206Z,60.10
2022-08-07T12:51:17.226Z,60.10
2022-08-07T12:56:51.362Z,60.60
2022-08-07T13:03:07.080Z,59.50
2022-08-07T13:08:56.098Z,60.00
2022-08-07T13:14:51.291Z,59.40
2022-08-07T13:20:39.876Z,58.80
2022-08-07T13:26:20.036Z,59.20
2022-08-07T13:32:37.359Z,59.00
2022-08-07T13:38:31.689Z,59.00
2022-08-07T13:44:05.162Z,58.70
2022-08-07T13:50:33.662Z,57.70
2022-08-07T13:55:37.144Z,57.60
2022-08-07T14:01:15.914Z,57.80
2022-08-07T14:06:50.306Z,56.90
2022-08-07T14:13:01.949Z,57.00
2022-08-07T14:18:49.908Z,57.20
2022-08-07T14:24:33.495Z,56.70
2022-08-07T14:30:11.820Z,56.80
2022-08-07T14:35:45.646Z,57.00
2022-08-07T14:41:33.836Z,56.80
2022-08-07T14:47:19.202Z,56.90
2022-08-07T14:52:50.226Z,56.70
2022-08-07T14:58:24.883Z,56.20
2022-08-07T15:03:53.636Z,56.00
2022-08-07T15:09:58.438Z,56.00
2022-08-07T15:15:22.422Z,56.10
2022-08-07T15:20:54.730Z,55.90
2022-08-07T15:26:36.017Z,56.10
2022-08-07T15:32:11.779Z,56.20
2022-08-07T15:50:03.750Z,56.80
2022-08-07T15:55:21.026Z,56.50
2022-08-07T16:00:51.692Z,57.20
2022-08-07T16:06:50.318Z,57.40
2022-08-07T16:13:00.888Z,57.20
2022-08-07T16:19:42.049Z,57.80
2022-08-07T16:25:55.249Z,57.60
2022-08-07T16:31:50.456Z,57.70
2022-08-07T16:38:06.628Z,58.30
2022-08-07T16:44:47.184Z,57.80
2022-08-07T16:50:38.995Z,58.10
2022-08-07T16:56:49.860Z,58.00
2022-08-07T17:03:06.082Z,58.10
2022-08-07T17:09:08.798Z,58.70
2022-08-07T17:15:02.478Z,58.40
2022-08-07T17:20:37.790Z,58.50
2022-08-07T17:26:23.528Z,58.80
2022-08-07T17:32:30.463Z,58.70
2022-08-07T17:38:13.600Z,58.80
2022-08-07T17:44:03.256Z,59.00
2022-08-07T17:49:56.810Z,59.10
2022-08-07T17:56:00.819Z,59.10
2022-08-07T18:02:11.186Z,59.40
2022-08-07T18:07:51.599Z,59.50
2022-08-07T18:13:53.601Z,59.60
2022-08-07T18:21:07.326Z,60.30
2022-08-07T18:25:40.835Z,60.10
2022-08-07T18:31:50.254Z,60.30
2022-08-07T18:38:56.218Z,60.60
2022-08-07T18:43:57.726Z,60.70
2022-08-07T18:50:30.759Z,61.00
2022-08-07T18:56:02.574Z,60.90
2022-08-07T19:02:32.034Z,61.30
2022-08-07T19:08:04.037Z,61.20
2022-08-07T19:13:45.707Z,61.30
2022-08-07T19:19:45.392Z,61.50
2022-08-07T19:26:22.737Z,61.90
2022-08-07T19:31:39.545Z,62.10
2022-08-07T19:37:17.414Z,61.90
2022-08-07T19:42:47.247Z,62.40
2022-08-07T19:48:18.998Z,62.70
2022-08-07T19:54:34.049Z,62.80
2022-08-07T19:59:50.056Z,62.70
2022-08-07T20:05:31.139Z,63.00
2022-08-07T20:11:34.251Z,63.50
2022-08-07T20:17:13.908Z,63.40
2022-08-07T20:22:47.135Z,63.70
2022-08-07T20:28:17.502Z,64.10
2022-08-07T20:33:56.793Z,64.40
2022-08-07T20:40:02.693Z,64.20
2022-08-07T20:45:32.123Z,64.70
2022-08-07T20:51:09.409Z,64.90
2022-08-07T20:56:46.202Z,65.00
2022-08-07T21:02:39.152Z,65.40
2022-08-07T21:14:16.821Z,65.90
2022-08-07T21:19:51.085Z,65.70
2022-08-07T21:26:12.170Z,65.80
2022-08-07T21:32:42.826Z,66.40
2022-08-07T21:38:27.500Z,66.50
2022-08-07T21:44:14.194Z,66.50
2022-08-07T21:50:01.822Z,67.60
2022-08-07T21:56:02.756Z,66.90
2022-08-07T22:02:10.704Z,67.30
2022-08-07T22:07:58.559Z,67.50
2022-08-07T22:13:52.395Z,67.70
2022-08-07T22:19:36.985Z,67.70
2022-08-07T22:25:36.532Z,67.60
2022-08-07T22:31:56.033Z,67.80
2022-08-07T22:38:03.311Z,68.40
2022-08-07T22:43:43.664Z,68.50
2022-08-07T22:49:33.820Z,68.60
2022-08-07T22:55:58.334Z,68.50
2022-08-07T23:01:50.614Z,68.60
2022-08-07T23:07:41.714Z,68.80
2022-08-07T23:13:48.887Z,69.10
2022-08-07T23:20:52.283Z,69.70
2022-08-07T23:26:25.098Z,69.10
2022-08-07T23:34:19.765Z,69.50
2022-08-07T23:38:54.686Z,69.30
2022-08-07T23:45:43.514Z,69.40
2022-08-07T23:53:00.668Z,69.10
2022-08-07T23:57:31.042Z,69.90
